Time;durP1;ratioP1;P1;durP2;ratioP2;P2;SDS_P1;SDS_P2;PMS_P1;PMS_P2;Temp;Humidity;BMP_temperature;BMP_pressure;BME280_temperature;BME280_humidity;BME280_pressure;Samples;Min_cycle;Max_cycle;Signal;HPM_P1;HPM_P2
2022/10/15 00:01:14;;;;;;;120.82;40.20;;;11.50;99.90;;;;;;5019228;28;20034;-64
2022/10/15 00:03:42;;;;;;;116.00;39.72;;;11.50;99.90;;;;;;5023717;28;20041;-65
2022/10/15 00:06:12;;;;;;;112.53;38.47;;;11.60;99.90;;;;;;5027456;28;20041;-65
2022/10/15 00:08:38;;;;;;;131.63;41.22;;;11.50;99.90;;;;;;5016346;28;20131;-64
2022/10/15 00:13:57;;;;;;;113.78;40.22;;;11.60;99.90;;;;;;5016440;28;20057;-64
2022/10/15 00:16:24;;;;;;;118.55;37.97;;;11.60;99.90;;;;;;5020661;28;20061;-64
2022/10/15 00:18:51;;;;;;;102.65;37.22;;;11.50;99.90;;;;;;5024125;28;20041;-64
2022/10/15 00:21:19;;;;;;;125.53;40.65;;;11.60;99.90;;;;;;5019416;28;20061;-64
2022/10/15 00:23:45;;;;;;;111.70;38.50;;;11.50;99.90;;;;;;5019862;28;20040;-65
2022/10/15 00:26:14;;;;;;;115.88;40.88;;;11.50;99.90;;;;;;5024550;28;20048;-64
2022/10/15 00:28:40;;;;;;;118.53;41.13;;;11.60;99.90;;;;;;5019620;28;20081;-64
2022/10/15 00:31:09;;;;;;;114.93;39.60;;;11.50;99.90;;;;;;5024426;28;20103;-64
2022/10/15 00:33:35;;;;;;;111.20;38.13;;;11.50;99.90;;;;;;5035568;28;20042;-64
2022/10/15 00:36:19;;;;;;;115.78;38.88;;;11.50;99.90;;;;;;5025214;28;20063;-64
2022/10/15 00:38:45;;;;;;;93.00;36.58;;;11.40;99.90;;;;;;5018489;28;20045;-64
2022/10/15 00:41:24;;;;;;;113.03;39.88;;;11.50;99.90;;;;;;5025044;28;20041;-64
2022/10/15 00:43:52;;;;;;;116.13;40.25;;;11.50;99.90;;;;;;5020758;28;20378;-64
2022/10/15 00:46:21;;;;;;;110.93;40.28;;;11.40;99.90;;;;;;5025758;28;20497;-64
2022/10/15 00:48:52;;;;;;;131.65;42.05;;;11.40;99.90;;;;;;5023282;28;20041;-65
2022/10/15 00:51:18;;;;;;;;;;;11.40;99.90;;;;;;5015997;28;20057;-65
2022/10/15 00:53:44;;;;;;;156.93;44.35;;;11.40;99.90;;;;;;5006547;28;19925;-65
2022/10/15 00:56:12;;;;;;;160.77;45.55;;;11.40;99.90;;;;;;5026681;28;20187;-65
2022/10/15 00:58:38;;;;;;;110.35;41.50;;;11.40;99.90;;;;;;5018249;28;20043;-65
2022/10/15 01:01:04;;;;;;;127.50;43.25;;;11.40;99.90;;;;;;5022937;28;20384;-64
2022/10/15 01:03:29;;;;;;;123.18;43.90;;;11.40;99.90;;;;;;5024983;28;20170;-65
2022/10/15 01:05:55;;;;;;;116.78;42.03;;;11.40;99.90;;;;;;5028427;28;20128;-65
2022/10/15 01:08:21;;;;;;;136.73;44.78;;;11.30;99.90;;;;;;5025843;28;20121;-65
2022/10/15 01:11:02;;;;;;;145.55;46.83;;;11.40;99.90;;;;;;5024854;28;20768;-64
2022/10/15 01:13:52;;;;;;;158.23;48.00;;;11.40;99.90;;;;;;5016954;28;20056;-65
2022/10/15 01:16:23;;;;;;;;;;;11.30;99.90;;;;;;5019494;28;20038;-64
2022/10/15 01:19:03;;;;;;;;;;;11.40;99.90;;;;;;5024441;28;19928;-65
2022/10/15 01:21:50;;;;;;;139.57;48.17;;;11.40;99.90;;;;;;5022151;28;20004;-65
2022/10/15 01:24:25;;;;;;;138.10;45.97;;;11.40;99.90;;;;;;5017737;28;20379;-64
2022/10/15 01:27:09;;;;;;;131.07;46.53;;;11.40;99.90;;;;;;5022828;28;20044;-64
2022/10/15 01:30:02;;;;;;;126.82;46.38;;;11.40;99.90;;;;;;5018673;28;20133;-65
2022/10/15 01:32:34;;;;;;;157.18;49.38;;;11.40;99.90;;;;;;5017434;28;20485;-65
2022/10/15 01:35:13;;;;;;;197.10;53.50;;;11.40;99.90;;;;;;5019740;28;20037;-64
2022/10/15 01:37:54;;;;;;;170.32;50.20;;;11.40;99.90;;;;;;5015944;28;21008;-65
2022/10/15 01:40:28;;;;;;;149.07;49.78;;;11.40;99.90;;;;;;5019733;28;20484;-65
2022/10/15 01:42:59;;;;;;;147.82;50.67;;;11.30;99.90;;;;;;5009960;28;20557;-65
2022/10/15 01:45:28;;;;;;;;;;;11.40;99.90;;;;;;5017561;28;20041;-65
2022/10/15 01:47:56;;;;;;;152.27;50.03;;;11.40;99.90;;;;;;5024111;28;20019;-65
2022/10/15 01:50:25;;;;;;;135.15;47.10;;;11.40;99.90;;;;;;5025651;28;20046;-65
2022/10/15 01:52:51;;;;;;;130.00;46.90;;;11.40;99.90;;;;;;5017771;28;20479;-64
2022/10/15 01:55:19;;;;;;;142.20;49.90;;;11.40;99.90;;;;;;5021030;28;20045;-65
2022/10/15 01:57:46;;;;;;;128.82;46.92;;;11.40;99.90;;;;;;5019546;28;20530;-65
2022/10/15 02:00:12;;;;;;;149.00;49.38;;;11.50;99.90;;;;;;5016733;28;20072;-65
2022/10/15 02:02:38;;;;;;;171.55;52.10;;;11.40;99.90;;;;;;5020611;28;20112;-65
2022/10/15 02:05:06;;;;;;;136.93;47.72;;;11.40;99.90;;;;;;5021117;28;20052;-65
2022/10/15 02:07:56;;;;;;;152.93;51.40;;;11.40;99.90;;;;;;5024618;28;20502;-64
2022/10/15 02:10:29;;;;;;;164.85;51.13;;;11.40;99.90;;;;;;5022790;28;20155;-64
2022/10/15 02:13:10;;;;;;;140.73;47.90;;;11.40;99.90;;;;;;5003449;28;20073;-65
2022/10/15 02:15:50;;;;;;;150.35;49.90;;;11.40;99.90;;;;;;5019763;28;20333;-64
2022/10/15 02:18:19;;;;;;;143.30;48.70;;;11.40;99.90;;;;;;5020958;28;20042;-64
2022/10/15 02:20:56;;;;;;;156.48;48.03;;;11.30;99.90;;;;;;5026247;28;20053;-65
2022/10/15 02:23:41;;;;;;;142.35;48.03;;;11.30;99.90;;;;;;5022302;28;20096;-65
2022/10/15 02:26:09;;;;;;;132.40;46.35;;;11.30;99.90;;;;;;5018123;28;20365;-65
2022/10/15 02:28:37;;;;;;;134.25;47.50;;;11.30;99.90;;;;;;5018542;28;20045;-65
2022/10/15 02:31:05;;;;;;;116.05;45.28;;;11.30;99.90;;;;;;5024663;28;20097;-65
2022/10/15 02:33:33;;;;;;;123.95;45.97;;;11.20;99.90;;;;;;5018217;28;20129;-65
2022/10/15 02:35:59;;;;;;;127.20;45.22;;;11.30;99.90;;;;;;5024328;28;20515;-65
2022/10/15 02:38:26;;;;;;;134.25;47.47;;;11.30;99.90;;;;;;5013090;28;20042;-65
2022/10/15 02:40:53;;;;;;;103.85;41.13;;;11.30;99.90;;;;;;5022599;28;20141;-65
2022/10/15 02:43:20;;;;;;;118.03;43.75;;;11.40;99.90;;;;;;5017869;28;20092;-65
2022/10/15 02:45:47;;;;;;;118.18;43.35;;;11.30;99.90;;;;;;5026048;28;20093;-65
2022/10/15 02:48:12;;;;;;;125.15;42.75;;;11.30;99.90;;;;;;5018557;28;20179;-65
2022/10/15 02:50:38;;;;;;;122.97;44.45;;;11.30;99.90;;;;;;5011364;28;20587;-65
2022/10/15 02:53:04;;;;;;;124.72;44.05;;;11.30;99.90;;;;;;5023136;28;20034;-65
2022/10/15 02:55:29;;;;;;;110.53;40.88;;;11.20;99.90;;;;;;5023563;28;20470;-65
2022/10/15 02:57:55;;;;;;;126.18;42.67;;;11.30;99.90;;;;;;5021329;28;20052;-65
2022/10/15 03:00:20;;;;;;;107.75;40.58;;;11.30;99.90;;;;;;5021078;28;20042;-65
2022/10/15 03:02:46;;;;;;;123.80;43.83;;;11.30;99.90;;;;;;5006908;28;20034;-65
2022/10/15 03:05:12;;;;;;;122.20;41.10;;;11.20;99.90;;;;;;5022804;28;20049;-65
2022/10/15 03:07:37;;;;;;;132.27;44.13;;;11.30;99.90;;;;;;5024423;28;20051;-65
2022/10/15 03:10:04;;;;;;;112.05;39.88;;;11.30;99.90;;;;;;5026575;28;20052;-65
2022/10/15 03:12:29;;;;;;;130.65;42.50;;;11.20;99.90;;;;;;5023695;28;20060;-65
2022/10/15 03:14:55;;;;;;;116.90;40.10;;;11.30;99.90;;;;;;5022645;28;20037;-65
2022/10/15 03:17:20;;;;;;;126.82;41.28;;;11.30;99.90;;;;;;5022627;28;20033;-65
2022/10/15 03:19:46;;;;;;;132.65;41.67;;;11.30;99.90;;;;;;5021717;28;20116;-65
2022/10/15 03:22:11;;;;;;;123.65;39.70;;;11.30;99.90;;;;;;5024426;28;20037;-65
2022/10/15 03:24:37;;;;;;;105.10;39.65;;;11.30;99.90;;;;;;5023328;28;20587;-66
2022/10/15 03:27:03;;;;;;;114.45;40.00;;;11.20;99.90;;;;;;5022647;28;20064;-65
2022/10/15 03:29:28;;;;;;;109.95;39.50;;;11.30;99.90;;;;;;5020890;28;20049;-65
2022/10/15 03:31:54;;;;;;;112.20;39.97;;;11.20;99.90;;;;;;5027451;28;20045;-65
2022/10/15 03:34:19;;;;;;;121.28;39.95;;;11.20;99.90;;;;;;5025508;28;20052;-65
2022/10/15 03:36:45;;;;;;;115.03;39.85;;;11.20;99.90;;;;;;5026870;28;20144;-64
2022/10/15 03:39:11;;;;;;;118.30;40.50;;;11.20;99.90;;;;;;5022581;28;20539;-65
2022/10/15 03:41:38;;;;;;;107.18;37.42;;;11.20;99.90;;;;;;5019821;28;20037;-65
2022/10/15 03:44:05;;;;;;;115.10;40.20;;;11.20;99.90;;;;;;5022310;28;20050;-65
2022/10/15 03:46:30;;;;;;;109.38;38.35;;;11.10;99.90;;;;;;5026321;28;20105;-64
2022/10/15 03:48:56;;;;;;;110.70;38.50;;;11.20;99.90;;;;;;5027456;28;20109;-65
2022/10/15 03:51:22;;;;;;;104.75;39.33;;;11.20;99.90;;;;;;5008879;28;20471;-64
2022/10/15 03:53:47;;;;;;;100.45;38.15;;;11.10;99.90;;;;;;5015264;28;20033;-65
2022/10/15 03:56:13;;;;;;;100.13;39.05;;;11.20;99.90;;;;;;5023765;28;20041;-64
2022/10/15 03:58:39;;;;;;;103.47;36.80;;;11.10;99.90;;;;;;5023359;28;20052;-65
2022/10/15 04:01:09;;;;;;;106.05;39.08;;;11.10;99.90;;;;;;5022675;28;20045;-65
2022/10/15 04:03:35;;;;;;;108.70;37.22;;;11.20;99.90;;;;;;5026296;28;20381;-64
2022/10/15 04:06:01;;;;;;;107.15;36.85;;;11.10;99.90;;;;;;5027612;28;20136;-65
2022/10/15 04:08:26;;;;;;;112.32;37.03;;;11.10;99.90;;;;;;5024559;28;20128;-65
2022/10/15 04:10:52;;;;;;;119.10;39.28;;;11.10;99.90;;;;;;5020229;28;20045;-65
2022/10/15 04:13:17;;;;;;;103.72;37.20;;;11.10;99.90;;;;;;5025035;28;20426;-65
2022/10/15 04:15:43;;;;;;;100.05;36.97;;;11.10;99.90;;;;;;5024533;28;20033;-65
2022/10/15 04:18:09;;;;;;;103.82;37.10;;;11.10;99.90;;;;;;5023620;28;20155;-65
2022/10/15 04:20:34;;;;;;;105.60;36.00;;;11.10;99.90;;;;;;5024951;28;20037;-64
2022/10/15 04:23:00;;;;;;;111.70;37.08;;;11.00;99.90;;;;;;5022583;28;20087;-65
2022/10/15 04:25:25;;;;;;;108.57;37.25;;;11.00;99.90;;;;;;5025802;28;20119;-65
2022/10/15 04:27:52;;;;;;;115.88;38.72;;;11.00;99.90;;;;;;5016762;28;20073;-65
2022/10/15 04:30:18;;;;;;;107.28;36.63;;;11.00;99.90;;;;;;5017461;28;21987;-65
2022/10/15 04:32:43;;;;;;;116.80;40.03;;;11.00;99.90;;;;;;5025243;28;20045;-65
2022/10/15 04:35:09;;;;;;;119.45;39.17;;;11.00;99.90;;;;;;5022835;28;20042;-65
2022/10/15 04:37:35;;;;;;;106.50;37.22;;;10.90;99.90;;;;;;5026064;28;20063;-65
2022/10/15 04:40:02;;;;;;;113.85;38.17;;;11.00;99.90;;;;;;5026837;28;20068;-65
2022/10/15 04:42:28;;;;;;;117.35;41.80;;;11.00;99.90;;;;;;5022991;28;20128;-65
2022/10/15 04:44:54;;;;;;;112.13;39.05;;;11.00;99.90;;;;;;5014748;28;20030;-65
2022/10/15 04:47:19;;;;;;;121.03;40.55;;;11.00;99.90;;;;;;5024701;28;20049;-66
2022/10/15 04:49:45;;;;;;;114.57;38.70;;;10.90;99.90;;;;;;5024829;28;20096;-65
2022/10/15 04:52:11;;;;;;;132.57;40.13;;;11.00;99.90;;;;;;5025154;28;20425;-65
2022/10/15 04:54:36;;;;;;;120.38;40.20;;;11.00;99.90;;;;;;5025587;28;20044;-65
2022/10/15 04:57:05;;;;;;;127.10;39.60;;;11.00;99.90;;;;;;5016655;28;20341;-65
2022/10/15 04:59:31;;;;;;;114.75;39.53;;;10.80;99.90;;;;;;5024097;28;20368;-65
2022/10/15 05:01:57;;;;;;;104.78;38.72;;;10.80;99.90;;;;;;5020951;28;20442;-65
2022/10/15 05:04:23;;;;;;;101.93;39.42;;;10.70;99.90;;;;;;5023214;28;20080;-65
2022/10/15 05:06:48;;;;;;;117.18;40.08;;;10.70;99.90;;;;;;5021192;28;20037;-65
2022/10/15 05:09:14;;;;;;;112.68;38.72;;;10.70;99.90;;;;;;5025726;28;20574;-65
2022/10/15 05:11:39;;;;;;;118.63;40.15;;;10.60;99.90;;;;;;5017960;28;20823;-65
2022/10/15 05:14:06;;;;;;;124.15;41.35;;;10.60;99.90;;;;;;5020412;28;20120;-68
2022/10/15 05:16:32;;;;;;;106.63;38.38;;;10.60;99.90;;;;;;5022557;28;20083;-64
2022/10/15 05:19:03;;;;;;;106.25;38.28;;;10.50;99.90;;;;;;5023686;28;20104;-65
2022/10/15 05:21:30;;;;;;;110.88;39.20;;;10.60;99.90;;;;;;5015413;28;20065;-65
2022/10/15 05:23:57;;;;;;;111.97;38.88;;;10.50;99.90;;;;;;5018959;28;20105;-65
2022/10/15 05:26:25;;;;;;;116.22;39.33;;;10.50;99.90;;;;;;5020105;28;20049;-65
2022/10/15 05:28:51;;;;;;;125.38;41.22;;;10.60;99.90;;;;;;5020643;28;20057;-65
2022/10/15 05:31:20;;;;;;;124.72;40.97;;;10.60;99.90;;;;;;5025907;28;20041;-65
2022/10/15 05:33:50;;;;;;;129.18;40.15;;;10.60;99.90;;;;;;5020369;28;20038;-65
2022/10/15 05:36:22;;;;;;;133.63;42.22;;;10.60;99.90;;;;;;5023566;28;20033;-65
2022/10/15 05:38:54;;;;;;;137.00;43.50;;;10.60;99.90;;;;;;5020270;28;20061;-65
2022/10/15 05:41:20;;;;;;;121.45;42.15;;;10.70;99.90;;;;;;5025222;28;20076;-65
2022/10/15 05:43:47;;;;;;;132.85;45.03;;;10.70;99.90;;;;;;5003170;28;20095;-65
2022/10/15 05:46:13;;;;;;;129.35;43.90;;;10.70;99.90;;;;;;5018141;28;20037;-66
2022/10/15 05:48:39;;;;;;;130.40;45.75;;;10.70;99.90;;;;;;5012905;28;20088;-65
2022/10/15 05:51:07;;;;;;;153.95;47.40;;;10.80;99.90;;;;;;5018205;28;20038;-65
2022/10/15 05:53:33;;;;;;;123.75;44.20;;;10.80;99.90;;;;;;5021701;28;20446;-65
2022/10/15 05:55:59;;;;;;;125.35;44.42;;;10.90;99.90;;;;;;5021009;28;20052;-65
2022/10/15 05:58:26;;;;;;;123.47;45.78;;;10.80;99.90;;;;;;5017519;28;20123;-65
2022/10/15 06:01:00;;;;;;;161.43;50.10;;;10.80;99.90;;;;;;5017664;28;20137;-65
2022/10/15 06:03:27;;;;;;;137.50;47.95;;;10.90;99.90;;;;;;5014184;28;20477;-65
2022/10/15 06:05:52;;;;;;;146.27;49.15;;;10.80;99.90;;;;;;5017939;28;20049;-65
2022/10/15 06:08:19;;;;;;;125.55;44.83;;;10.90;99.90;;;;;;5015532;28;20092;-65
2022/10/15 06:10:45;;;;;;;146.13;47.70;;;10.90;99.90;;;;;;5012792;28;20030;-66
2022/10/15 06:13:11;;;;;;;156.75;50.58;;;11.00;99.90;;;;;;5017867;28;20049;-65
2022/10/15 06:15:41;;;;;;;170.45;51.58;;;10.90;99.90;;;;;;5013786;28;20879;-66
2022/10/15 06:18:08;;;;;;;148.07;49.13;;;10.90;99.90;;;;;;5022637;28;20045;-65
2022/10/15 06:20:34;;;;;;;146.82;47.58;;;10.90;99.90;;;;;;5020123;28;20457;-66
2022/10/15 06:23:01;;;;;;;129.10;47.35;;;10.90;99.90;;;;;;5019994;28;20033;-65
2022/10/15 06:25:27;;;;;;;138.90;49.10;;;10.90;99.90;;;;;;5011612;28;20045;-65
2022/10/15 06:27:53;;;;;;;137.27;47.67;;;11.00;99.90;;;;;;5009284;28;20379;-66
2022/10/15 06:30:19;;;;;;;141.90;48.63;;;11.00;99.90;;;;;;4998630;28;22109;-65
2022/10/15 06:32:52;;;;;;;176.00;52.40;;;11.00;99.90;;;;;;5020447;28;20056;-66
2022/10/15 06:35:20;;;;;;;142.80;48.53;;;11.00;99.90;;;;;;5024583;28;20083;-66
2022/10/15 06:37:45;;;;;;;131.30;47.80;;;11.10;99.90;;;;;;5016390;28;20042;-65
2022/10/15 06:40:12;;;;;;;141.55;47.05;;;11.10;99.90;;;;;;5015257;28;20091;-66
2022/10/15 06:42:38;;;;;;;140.00;50.50;;;11.10;99.90;;;;;;5017995;28;20153;-65
2022/10/15 06:45:04;;;;;;;144.57;48.75;;;11.00;99.90;;;;;;5023230;28;20128;-66
2022/10/15 06:47:30;;;;;;;140.32;48.30;;;11.20;99.90;;;;;;5019597;28;20050;-66
2022/10/15 06:49:55;;;;;;;138.55;48.70;;;11.10;99.90;;;;;;5024272;28;20036;-65
2022/10/15 06:52:22;;;;;;;143.43;48.30;;;11.10;99.90;;;;;;5017402;28;20045;-64
2022/10/15 06:54:48;;;;;;;126.93;44.58;;;11.20;99.90;;;;;;5014765;28;20183;-68
2022/10/15 06:57:14;;;;;;;144.40;49.13;;;11.10;99.90;;;;;;5019420;28;20145;-66
2022/10/15 06:59:40;;;;;;;126.88;47.67;;;11.20;99.90;;;;;;5027193;28;20473;-66
2022/10/15 07:02:05;;;;;;;143.73;50.03;;;11.20;99.90;;;;;;5027577;28;20364;-66
2022/10/15 07:04:31;;;;;;;140.32;46.78;;;11.10;99.90;;;;;;5032123;28;20468;-67
2022/10/15 07:06:56;;;;;;;144.48;48.00;;;11.20;99.90;;;;;;5030833;28;20029;-67
2022/10/15 07:09:22;;;;;;;131.55;46.60;;;11.30;99.90;;;;;;5026063;28;20045;-67
2022/10/15 07:11:47;;;;;;;123.47;46.67;;;11.30;99.90;;;;;;5022985;28;20071;-66
2022/10/15 07:14:13;;;;;;;123.97;45.55;;;11.30;99.90;;;;;;5022688;28;20074;-67
2022/10/15 07:16:39;;;;;;;140.85;47.10;;;11.30;99.90;;;;;;5021405;28;20473;-67
2022/10/15 07:19:04;;;;;;;127.80;45.70;;;11.30;99.90;;;;;;5026845;28;20103;-67
2022/10/15 07:21:30;;;;;;;132.43;46.28;;;11.30;99.90;;;;;;5023520;28;20038;-67
2022/10/15 07:23:56;;;;;;;132.55;46.35;;;11.40;99.90;;;;;;5020883;28;20033;-66
2022/10/15 07:26:21;;;;;;;124.53;44.42;;;11.40;99.90;;;;;;5026893;28;20755;-67
2022/10/15 07:28:47;;;;;;;128.65;47.47;;;11.30;99.90;;;;;;5014467;28;20045;-67
2022/10/15 07:31:13;;;;;;;122.93;45.22;;;11.40;99.90;;;;;;5022928;28;20137;-67
2022/10/15 07:33:40;;;;;;;121.60;44.13;;;11.50;99.90;;;;;;5023048;28;20424;-67
2022/10/15 07:36:09;;;;;;;133.52;46.63;;;11.60;99.90;;;;;;5025399;28;20044;-67
2022/10/15 07:38:35;;;;;;;129.07;46.60;;;11.70;99.90;;;;;;4995059;28;20079;-67
2022/10/15 07:41:02;;;;;;;116.07;44.67;;;11.70;99.90;;;;;;5023050;28;20366;-67
2022/10/15 07:43:28;;;;;;;109.15;42.97;;;11.80;99.90;;;;;;5023648;28;20041;-66
2022/10/15 07:45:54;;;;;;;120.30;45.20;;;11.90;99.90;;;;;;5030277;28;20388;-67
2022/10/15 07:48:20;;;;;;;115.78;43.10;;;11.90;99.90;;;;;;5030050;28;20387;-67
2022/10/15 07:50:45;;;;;;;109.13;42.70;;;11.90;99.90;;;;;;5025739;28;20049;-67
2022/10/15 07:53:11;;;;;;;111.45;41.75;;;12.00;99.90;;;;;;5020604;28;20393;-67
2022/10/15 07:55:37;;;;;;;98.85;40.15;;;11.80;99.90;;;;;;5024548;28;20172;-67
2022/10/15 07:58:04;;;;;;;101.47;39.72;;;11.80;99.90;;;;;;5026165;28;20199;-66
2022/10/15 08:00:31;;;;;;;102.32;41.83;;;11.80;99.90;;;;;;5030826;28;20373;-67
2022/10/15 08:02:57;;;;;;;99.50;39.28;;;11.90;99.90;;;;;;5031823;28;20037;-67
2022/10/15 08:05:22;;;;;;;96.72;40.10;;;11.80;99.90;;;;;;5030450;28;20037;-67
2022/10/15 08:07:48;;;;;;;101.38;40.08;;;11.80;99.90;;;;;;5012846;28;20141;-67
2022/10/15 08:10:14;;;;;;;100.45;41.17;;;11.90;99.90;;;;;;5028041;28;20083;-64
2022/10/15 08:12:40;;;;;;;95.28;40.78;;;12.00;99.90;;;;;;5026846;28;20053;-67
2022/10/15 08:15:06;;;;;;;95.30;39.13;;;12.20;99.90;;;;;;5027525;28;20424;-67
2022/10/15 08:17:32;;;;;;;83.18;38.60;;;12.20;99.90;;;;;;5012626;28;20042;-66
2022/10/15 08:19:57;;;;;;;107.00;42.45;;;12.40;99.90;;;;;;5013343;28;20038;-68
2022/10/15 08:22:23;;;;;;;94.60;39.60;;;12.60;99.90;;;;;;5027532;28;20037;-67
2022/10/15 08:24:48;;;;;;;97.28;41.17;;;12.60;99.90;;;;;;5028665;28;20068;-67
2022/10/15 08:27:14;;;;;;;82.57;38.58;;;12.80;99.90;;;;;;5011252;28;20045;-67
2022/10/15 08:29:39;;;;;;;78.40;37.22;;;12.80;99.90;;;;;;5022148;28;20044;-67
2022/10/15 08:32:05;;;;;;;73.72;37.13;;;12.70;99.90;;;;;;5028975;28;20041;-65
2022/10/15 08:34:31;;;;;;;71.38;34.85;;;12.80;99.90;;;;;;5024407;28;20036;-67
2022/10/15 08:36:56;;;;;;;72.38;34.65;;;12.80;99.90;;;;;;5028698;28;20041;-67
2022/10/15 08:39:22;;;;;;;83.80;38.42;;;12.90;99.90;;;;;;5012401;28;20045;-66
2022/10/15 08:41:57;;;;;;;83.50;38.30;;;12.90;99.90;;;;;;5027976;28;20079;-66
2022/10/15 08:44:35;;;;;;;71.88;35.08;;;12.90;99.90;;;;;;5008995;28;20218;-66
2022/10/15 08:47:15;;;;;;;73.85;35.53;;;12.90;99.90;;;;;;5027768;28;20128;-67
2022/10/15 08:49:50;;;;;;;75.07;34.53;;;12.80;99.90;;;;;;5026567;28;20037;-66
2022/10/15 08:52:24;;;;;;;70.05;35.75;;;12.80;99.90;;;;;;5028321;28;20045;-67
2022/10/15 08:54:51;;;;;;;73.82;35.42;;;12.70;99.90;;;;;;5027811;28;20037;-66
2022/10/15 08:57:38;;;;;;;69.07;35.70;;;12.80;99.90;;;;;;5028064;28;20044;-67
2022/10/15 09:00:12;;;;;;;72.28;35.28;;;12.70;99.90;;;;;;5016727;28;20056;-66
2022/10/15 09:03:00;;;;;;;73.68;37.47;;;12.70;99.90;;;;;;5018619;28;20049;-66
2022/10/15 09:05:47;;;;;;;72.88;37.28;;;12.70;99.90;;;;;;5027697;28;20119;-65
2022/10/15 09:08:31;;;;;;;70.80;37.17;;;12.70;99.90;;;;;;5029001;28;20176;-65
2022/10/15 09:11:04;;;;;;;70.20;37.33;;;12.90;99.90;;;;;;5027157;28;20045;-66
2022/10/15 09:13:39;;;;;;;77.55;38.10;;;12.90;99.90;;;;;;5025822;28;20056;-66
2022/10/15 09:16:31;;;;;;;71.30;36.05;;;13.00;99.90;;;;;;5027814;28;20102;-66
2022/10/15 09:18:59;;;;;;;81.15;41.03;;;13.10;99.90;;;;;;5029665;28;20053;-65
2022/10/15 09:21:26;;;;;;;70.50;37.08;;;13.20;99.90;;;;;;5024501;28;20705;-66
2022/10/15 09:23:55;;;;;;;75.25;37.88;;;13.20;99.90;;;;;;5028941;28;20045;-64
2022/10/15 09:26:27;;;;;;;70.72;36.08;;;13.20;99.90;;;;;;5028426;28;20048;-65
2022/10/15 09:29:05;;;;;;;71.43;36.33;;;13.20;99.90;;;;;;5025084;28;20041;-66
2022/10/15 09:31:52;;;;;;;70.75;35.45;;;13.20;99.90;;;;;;5026469;28;20419;-65
2022/10/15 09:34:26;;;;;;;66.68;33.22;;;13.20;99.90;;;;;;5027640;28;20446;-66
2022/10/15 09:36:57;;;;;;;55.28;29.88;;;13.10;99.90;;;;;;5012641;28;20044;-68
2022/10/15 09:39:22;;;;;;;62.05;31.52;;;13.10;99.90;;;;;;5011473;28;20060;-66
2022/10/15 09:42:29;;;;;;;63.65;30.23;;;13.10;99.90;;;;;;5024043;28;20049;-65
2022/10/15 09:44:59;;;;;;;68.65;31.67;;;13.00;99.90;;;;;;4998349;28;20057;-66
2022/10/15 09:47:30;;;;;;;77.40;34.20;;;12.90;99.90;;;;;;5029094;28;20144;-66
2022/10/15 09:49:56;;;;;;;66.95;30.67;;;12.90;99.90;;;;;;5026198;28;20033;-66
2022/10/15 09:52:50;;;;;;;71.13;30.38;;;12.90;99.90;;;;;;5026254;28;20044;-64
2022/10/15 09:56:02;;;;;;;59.58;28.02;;;12.90;99.90;;;;;;5018414;28;20038;-66
2022/10/15 09:58:37;;;;;;;68.20;28.05;;;12.80;99.90;;;;;;5025150;28;20393;-66
2022/10/15 10:01:06;;;;;;;66.68;29.70;;;12.70;99.90;;;;;;5026167;28;20056;-65
2022/10/15 10:03:33;;;;;;;70.70;30.40;;;12.70;99.90;;;;;;5027139;28;20137;-66
2022/10/15 10:06:09;;;;;;;70.30;28.83;;;12.70;99.90;;;;;;5027338;28;20033;-65
2022/10/15 10:08:56;;;;;;;73.35;30.50;;;12.80;99.90;;;;;;5027492;28;20091;-64
2022/10/15 10:11:24;;;;;;;75.25;30.55;;;12.80;99.90;;;;;;5027095;28;20143;-65
2022/10/15 10:13:54;;;;;;;69.70;28.83;;;12.70;99.90;;;;;;5023357;28;20167;-64
2022/10/15 10:16:20;;;;;;;70.50;28.92;;;12.70;99.90;;;;;;5030697;28;20041;-65
2022/10/15 10:19:11;;;;;;;72.63;29.67;;;12.70;99.90;;;;;;5032912;28;20060;-65
2022/10/15 10:21:40;;;;;;;63.95;25.95;;;12.80;99.90;;;;;;5032884;28;20037;-65
2022/10/15 10:24:29;;;;;;;62.10;26.75;;;12.70;99.90;;;;;;5031616;28;20084;-64
2022/10/15 10:26:55;;;;;;;55.83;24.60;;;12.90;99.90;;;;;;5029260;28;20052;-64
2022/10/15 10:29:22;;;;;;;54.67;25.08;;;12.90;99.90;;;;;;5029877;28;20080;-64
2022/10/15 10:31:50;;;;;;;53.97;23.90;;;12.90;99.90;;;;;;5032467;28;20097;-65
2022/10/15 10:34:27;;;;;;;57.95;24.67;;;13.00;99.90;;;;;;5031458;28;20163;-65
2022/10/15 10:36:54;;;;;;;56.00;25.17;;;13.00;99.90;;;;;;5030691;28;20354;-64
2022/10/15 10:39:35;;;;;;;57.40;24.08;;;13.00;99.90;;;;;;5028147;28;20041;-65
2022/10/15 10:42:23;;;;;;;47.70;22.58;;;13.00;99.90;;;;;;5032056;28;20049;-64
2022/10/15 10:44:50;;;;;;;51.67;23.75;;;13.00;99.90;;;;;;5031586;28;20069;-64
2022/10/15 10:47:16;;;;;;;48.72;23.48;;;13.10;99.90;;;;;;5032679;28;20099;-65
2022/10/15 10:49:45;;;;;;;49.72;22.20;;;13.30;99.90;;;;;;5032321;28;20512;-64
2022/10/15 10:52:27;;;;;;;43.88;20.63;;;13.50;99.90;;;;;;5031506;28;20041;-63
2022/10/15 10:55:05;;;;;;;44.33;21.25;;;13.80;99.90;;;;;;5012228;28;20053;-64
2022/10/15 10:57:45;;;;;;;41.58;20.95;;;13.80;99.90;;;;;;5012148;28;20052;-65
2022/10/15 11:00:18;;;;;;;;;;;13.90;99.90;;;;;;5012054;28;20038;-64
2022/10/15 11:02:43;;;;;;;41.03;18.98;;;13.80;99.90;;;;;;5022558;28;19920;-63
2022/10/15 11:05:12;;;;;;;38.35;19.17;;;14.00;99.90;;;;;;5033836;28;20041;-65
2022/10/15 11:07:47;;;;;;;35.42;17.85;;;14.00;99.90;;;;;;5032760;28;20125;-63
2022/10/15 11:10:23;;;;;;;35.05;17.10;;;13.90;99.90;;;;;;5033901;28;20073;-65
2022/10/15 11:13:22;;;;;;;33.38;17.27;;;13.90;99.90;;;;;;5029629;28;20085;-66
2022/10/15 11:15:55;;;;;;;33.13;16.92;;;14.00;99.90;;;;;;5032942;28;20041;-63
2022/10/15 11:18:38;;;;;;;30.65;16.80;;;14.10;99.90;;;;;;5032581;28;20049;-64
2022/10/15 11:21:15;;;;;;;38.58;18.15;;;14.10;99.90;;;;;;5031892;28;20087;-64
2022/10/15 11:23:54;;;;;;;33.42;18.27;;;14.20;99.90;;;;;;5031128;28;20144;-64
2022/10/15 11:26:34;;;;;;;31.00;18.60;;;14.20;99.90;;;;;;5031364;28;20374;-64
2022/10/15 11:29:09;;;;;;;30.80;17.73;;;14.40;99.90;;;;;;5019082;28;20105;-64
2022/10/15 11:31:56;;;;;;;30.58;17.30;;;14.30;99.90;;;;;;5012340;28;20042;-64
2022/10/15 11:34:22;;;;;;;29.83;16.75;;;14.30;99.90;;;;;;5025237;28;20041;-64
2022/10/15 11:37:08;;;;;;;30.00;17.02;;;14.20;99.90;;;;;;5031631;28;20033;-65
2022/10/15 11:40:15;;;;;;;31.60;18.05;;;14.30;99.90;;;;;;5032398;28;20457;-64
2022/10/15 11:42:52;;;;;;;30.92;17.30;;;14.40;99.90;;;;;;5015589;28;20041;-65
2022/10/15 11:45:42;;;;;;;27.88;16.30;;;14.40;99.90;;;;;;5029796;28;20083;-64
2022/10/15 11:48:32;;;;;;;29.25;16.83;;;14.40;99.90;;;;;;5029203;28;20134;-64
2022/10/15 11:51:23;;;;;;;29.55;16.50;;;14.50;99.90;;;;;;5029888;28;20183;-64
2022/10/15 11:53:52;;;;;;;27.23;15.93;;;14.60;99.90;;;;;;5022507;28;20057;-63
2022/10/15 11:56:35;;;;;;;25.98;16.15;;;14.60;99.90;;;;;;5046560;28;20056;-63
2022/10/15 11:59:14;;;;;;;28.50;14.68;;;14.60;99.90;;;;;;5015175;28;20061;-63
2022/10/15 12:01:51;;;;;;;26.47;14.97;;;14.70;99.90;;;;;;5027101;28;20076;-64
2022/10/15 12:04:43;;;;;;;27.42;14.90;;;14.70;99.90;;;;;;5030119;28;20041;-63
2022/10/15 12:07:16;;;;;;;25.63;15.85;;;14.60;99.90;;;;;;5030865;28;20136;-64
2022/10/15 12:09:48;;;;;;;27.23;14.50;;;14.50;99.90;;;;;;5025405;28;20125;-64
2022/10/15 12:12:52;;;;;;;24.95;14.10;;;14.60;99.90;;;;;;5025744;28;20532;-66
2022/10/15 12:16:05;;;;;;;22.20;13.70;;;14.60;99.90;;;;;;5028887;28;20048;-64
2022/10/15 12:18:50;;;;;;;25.73;14.85;;;14.80;99.90;;;;;;5019426;28;20109;-65
2022/10/15 12:21:37;;;;;;;27.25;15.05;;;14.70;99.90;;;;;;5021950;28;20049;-63
2022/10/15 12:24:24;;;;;;;25.20;13.98;;;14.70;99.90;;;;;;5017671;28;20048;-63
2022/10/15 12:26:49;;;;;;;23.92;14.13;;;14.60;99.90;;;;;;5018689;28;20426;-65
2022/10/15 12:29:25;;;;;;;24.95;14.43;;;14.60;99.90;;;;;;5018761;28;20041;-64
2022/10/15 12:31:55;;;;;;;21.48;12.95;;;14.70;99.90;;;;;;5032273;28;20496;-63
2022/10/15 12:34:50;;;;;;;22.80;13.50;;;14.80;99.90;;;;;;5030646;28;20057;-65
2022/10/15 12:37:18;;;;;;;21.90;13.00;;;14.90;99.90;;;;;;5020118;28;20116;-64
2022/10/15 12:39:44;;;;;;;21.77;13.10;;;15.00;99.90;;;;;;5022306;28;20123;-65
2022/10/15 12:42:26;;;;;;;20.33;12.75;;;14.90;99.90;;;;;;5011497;28;20053;-65
2022/10/15 12:44:52;;;;;;;21.75;13.07;;;14.90;99.90;;;;;;5012443;28;20037;-64